Time;durP1;ratioP1;P1;durP2;ratioP2;P2;SDS_P1;SDS_P2;PMS_P1;PMS_P2;Temp;Humidity;BMP_temperature;BMP_pressure;BME280_temperature;BME280_humidity;BME280_pressure;Samples;Min_cycle;Max_cycle;Signal;HPM_P1;HPM_P2
2023/02/08 00:01:36;;;;;;;;;;;;;;;;;;5070887;28;19974;-67
2023/02/08 00:04:02;;;;;;;;;;;;;;;;;;5069158;28;19929;-68
2023/02/08 00:06:27;;;;;;;;;;;;;;;;;;5053647;28;19920;-68
2023/02/08 00:08:53;;;;;;;;;;;;;;;;;;5072400;28;19940;-68
2023/02/08 00:11:19;;;;;;;;;;;;;;;;;;5071842;28;20003;-68
2023/02/08 00:13:45;;;;;;;;;;;;;;;;;;5071332;28;19920;-67
2023/02/08 00:16:11;;;;;;;;;;;;;;;;;;5073011;28;19931;-68
2023/02/08 00:18:37;;;;;;;;;;;;;;;;;;5074853;28;20358;-68
2023/02/08 00:21:03;;;;;;;;;;;;;;;;;;5054715;28;19921;-68
2023/02/08 00:23:29;;;;;;;;;;;;;;;;;;5072687;28;19960;-68
2023/02/08 00:25:55;;;;;;;;;;;;;;;;;;5063103;28;19928;-68
2023/02/08 00:28:21;;;;;;;;;;;;;;;;;;5069214;28;20392;-67
2023/02/08 00:30:47;;;;;;;;;;;;;;;;;;5070513;28;19927;-67
2023/02/08 00:33:13;;;;;;;;;;;;;;;;;;5072461;28;19920;-67
2023/02/08 00:35:39;;;;;;;;;;;;;;;;;;5073274;28;20301;-67
2023/02/08 00:38:05;;;;;;;;;;;;;;;;;;5073797;28;19924;-67
2023/02/08 00:40:31;;;;;;;;;;;;;;;;;;5071258;28;19920;-67
2023/02/08 00:42:57;;;;;;;;;;;;;;;;;;5064969;28;19942;-67
2023/02/08 00:45:23;;;;;;;;;;;;;;;;;;5072288;28;19956;-67
2023/02/08 00:47:49;;;;;;;;;;;;;;;;;;5072769;28;20380;-67
2023/02/08 00:50:15;;;;;;;;;;;;;;;;;;5067612;28;19931;-67
2023/02/08 00:52:41;;;;;;;;;;;;;;;;;;5070548;28;19928;-67
2023/02/08 00:55:07;;;;;;;;;;;;;;;;;;5069389;28;19928;-67
2023/02/08 00:57:32;;;;;;;;;;;;;;;;;;5071978;28;20011;-67
2023/02/08 00:59:58;;;;;;;;;;;;;;;;;;5068366;28;19921;-67
2023/02/08 01:02:24;;;;;;;;;;;;;;;;;;5070002;28;19968;-67
2023/02/08 01:04:50;;;;;;;;;;;;;;;;;;5069840;28;19924;-67
2023/02/08 01:28:42;;;;;;;;;;;;;;;;;;5061231;28;20041;-66
2023/02/08 01:31:08;;;;;;;;;;;;;;;;;;5071871;28;19927;-66
2023/02/08 01:33:34;;;;;;;;;;;;;;;;;;5071416;28;19952;-67
2023/02/08 01:36:00;;;;;;;;;;;;;;;;;;5072124;28;19977;-67
2023/02/08 01:38:26;;;;;;;;;;;;;;;;;;5070728;28;19928;-67
2023/02/08 01:40:52;;;;;;;;;;;;;;;;;;5068750;28;20270;-67
2023/02/08 01:43:17;;;;;;;;;;;;;;;;;;5070428;28;19973;-66
2023/02/08 01:45:43;;;;;;;;;;;;;;;;;;5070621;28;19921;-66
2023/02/08 01:48:09;;;;;;;;;;;;;;;;;;5052881;28;20333;-66
2023/02/08 01:50:35;;;;;;;;;;;;;;;;;;5071549;28;19924;-66
2023/02/08 01:53:01;;;;;;;;;;;;;;;;;;5072475;28;20011;-66
2023/02/08 01:55:27;;;;;;;;;;;;;;;;;;5071848;28;20012;-66
2023/02/08 01:57:53;;;;;;;;;;;;;;;;;;5066070;28;20363;-66
2023/02/08 02:00:22;;;;;;;;;;;;;;;;;;5069922;28;19963;-66
2023/02/08 02:02:48;;;;;;;;;;;;;;;;;;5053933;28;20374;-66
2023/02/08 02:05:14;;;;;;;;;;;;;;;;;;5059962;28;20882;-66
2023/02/08 02:07:40;;;;;;;;;;;;;;;;;;5067444;28;19924;-66
2023/02/08 02:10:06;;;;;;;;;;;;;;;;;;5065904;28;19920;-66
2023/02/08 02:12:32;;;;;;;;;;;;;;;;;;5064414;28;20270;-66
2023/02/08 02:14:57;;;;;;;;;;;;;;;;;;5071678;28;20007;-66
2023/02/08 02:17:23;;;;;;;;;;;;;;;;;;5065873;28;19935;-67
2023/02/08 02:19:49;;;;;;;;;;;;;;;;;;5053420;28;19946;-66
2023/02/08 02:22:15;;;;;;;;;;;;;;;;;;5062132;28;19924;-67
2023/02/08 02:24:41;;;;;;;;;;;;;;;;;;5069703;28;20361;-66
2023/02/08 02:27:07;;;;;;;;;;;;;;;;;;5071421;28;19951;-65
2023/02/08 02:29:33;;;;;;;;;;;;;;;;;;5067504;28;20355;-66
2023/02/08 02:31:59;;;;;;;;;;;;;;;;;;5066932;28;19924;-66
2023/02/08 02:34:25;;;;;;;;;;;;;;;;;;5068765;28;19981;-66
2023/02/08 02:36:51;;;;;;;;;;;;;;;;;;5070083;28;19928;-66
2023/02/08 02:39:17;;;;;;;;;;;;;;;;;;5071057;28;19943;-66
2023/02/08 02:44:27;;;;;;;;;;;;;;;;;;5070273;28;19920;-66
2023/02/08 02:46:53;;;;;;;;;;;;;;;;;;5070222;28;20470;-66
2023/02/08 02:49:19;;;;;;;;;;;;;;;;;;5070759;28;19928;-66
2023/02/08 02:51:45;;;;;;;;;;;;;;;;;;5070249;28;19974;-66
2023/02/08 02:54:11;;;;;;;;;;;;;;;;;;5064481;28;19990;-66
2023/02/08 02:56:37;;;;;;;;;;;;;;;;;;5068100;28;19921;-66
2023/02/08 02:59:03;;;;;;;;;;;;;;;;;;5071270;28;19955;-66
2023/02/08 03:01:29;;;;;;;;;;;;;;;;;;5069813;28;19928;-66
2023/02/08 03:03:55;;;;;;;;;;;;;;;;;;5066865;28;19955;-66
2023/02/08 03:06:20;;;;;;;;;;;;;;;;;;5069031;28;20424;-66
2023/02/08 03:08:46;;;;;;;;;;;;;;;;;;5069893;28;20042;-67
2023/02/08 03:11:12;;;;;;;;;;;;;;;;;;5070291;28;20050;-67
2023/02/08 03:13:38;;;;;;;;;;;;;;;;;;5067116;28;20013;-66
2023/02/08 03:16:04;;;;;;;;;;;;;;;;;;5070489;28;19928;-66
2023/02/08 03:18:30;;;;;;;;;;;;;;;;;;5052353;28;19996;-67
2023/02/08 03:20:56;;;;;;;;;;;;;;;;;;5067547;28;19920;-66
2023/02/08 03:23:22;;;;;;;;;;;;;;;;;;5070390;28;19924;-66
2023/02/08 03:25:48;;;;;;;;;;;;;;;;;;5070208;28;19920;-66
2023/02/08 03:28:14;;;;;;;;;;;;;;;;;;5062867;28;20244;-67
2023/02/08 03:30:43;;;;;;;;;;;;;;;;;;5067183;28;19960;-66
2023/02/08 03:33:09;;;;;;;;;;;;;;;;;;5064157;28;19954;-66
2023/02/08 03:35:35;;;;;;;;;;;;;;;;;;5064522;28;19929;-66
2023/02/08 03:38:01;;;;;;;;;;;;;;;;;;5069214;28;20421;-66
2023/02/08 03:40:27;;;;;;;;;;;;;;;;;;5070119;28;19932;-66
2023/02/08 03:42:53;;;;;;;;;;;;;;;;;;5059388;28;19952;-66
2023/02/08 03:45:19;;;;;;;;;;;;;;;;;;5049032;28;19924;-66
2023/02/08 03:47:45;;;;;;;;;;;;;;;;;;5069966;28;19931;-66
2023/02/08 03:50:11;;;;;;;;;;;;;;;;;;5068599;28;19921;-66
2023/02/08 03:52:37;;;;;;;;;;;;;;;;;;5065020;28;19927;-65
2023/02/08 03:55:02;;;;;;;;;;;;;;;;;;5067529;28;19928;-66
2023/02/08 03:57:28;;;;;;;;;;;;;;;;;;5066149;28;19928;-66
2023/02/08 03:59:54;;;;;;;;;;;;;;;;;;5065990;28;19971;-66
2023/02/08 04:02:20;;;;;;;;;;;;;;;;;;5063929;28;19920;-66
2023/02/08 04:04:46;;;;;;;;;;;;;;;;;;5065311;28;20520;-66
2023/02/08 04:07:12;;;;;;;;;;;;;;;;;;5065671;28;19928;-65
2023/02/08 04:09:38;;;;;;;;;;;;;;;;;;5068138;28;19974;-65
2023/02/08 04:12:04;;;;;;;;;;;;;;;;;;5065688;28;20015;-65
2023/02/08 04:14:30;;;;;;;;;;;;;;;;;;5067531;28;19955;-66
2023/02/08 04:16:56;;;;;;;;;;;;;;;;;;5068043;28;19920;-66
2023/02/08 04:19:21;;;;;;;;;;;;;;;;;;5064253;28;19924;-66
2023/02/08 04:21:47;;;;;;;;;;;;;;;;;;5066889;28;19920;-65
2023/02/08 04:24:13;;;;;;;;;;;;;;;;;;5063262;28;19980;-65
2023/02/08 04:26:39;;;;;;;;;;;;;;;;;;5066943;28;21882;-66
2023/02/08 04:29:05;;;;;;;;;;;;;;;;;;5065378;28;20287;-65
2023/02/08 04:31:31;;;;;;;;;;;;;;;;;;5067408;28;20005;-65
2023/02/08 04:33:57;;;;;;;;;;;;;;;;;;5066972;28;19924;-65
2023/02/08 04:36:23;;;;;;;;;;;;;;;;;;5069490;28;19928;-66
2023/02/08 04:38:49;;;;;;;;;;;;;;;;;;5072011;28;19927;-66
2023/02/08 04:41:14;;;;;;;;;;;;;;;;;;5072230;28;20374;-66
2023/02/08 04:43:40;;;;;;;;;;;;;;;;;;5071175;28;19970;-66
2023/02/08 04:46:06;;;;;;;;;;;;;;;;;;5071259;28;20340;-66
2023/02/08 04:48:32;;;;;;;;;;;;;;;;;;5070884;28;20404;-66
2023/02/08 04:50:59;;;;;;;;;;;;;;;;;;5071064;28;19983;-66
2023/02/08 04:53:25;;;;;;;;;;;;;;;;;;5065075;28;19928;-66
2023/02/08 04:55:51;;;;;;;;;;;;;;;;;;5071137;28;19935;-66
2023/02/08 04:58:17;;;;;;;;;;;;;;;;;;5065848;28;19920;-66
2023/02/08 05:00:42;;;;;;;;;;;;;;;;;;5066032;28;20008;-66
2023/02/08 05:03:08;;;;;;;;;;;;;;;;;;5070306;28;19946;-66
2023/02/08 05:05:34;;;;;;;;;;;;;;;;;;5070843;28;19931;-66
2023/02/08 05:08:00;;;;;;;;;;;;;;;;;;5057215;28;20337;-66
2023/02/08 05:10:26;;;;;;;;;;;;;;;;;;5071370;28;19932;-66
2023/02/08 05:12:52;;;;;;;;;;;;;;;;;;5073234;28;19963;-66
2023/02/08 05:15:18;;;;;;;;;;;;;;;;;;5068899;28;20311;-66
2023/02/08 05:17:44;;;;;;;;;;;;;;;;;;5065021;28;19921;-66
2023/02/08 05:20:10;;;;;;;;;;;;;;;;;;5073043;28;19931;-66
2023/02/08 05:22:35;;;;;;;;;;;;;;;;;;5073353;28;19924;-66
2023/02/08 05:25:01;;;;;;;;;;;;;;;;;;5072512;28;19943;-66
2023/02/08 05:27:27;;;;;;;;;;;;;;;;;;5072100;28;20262;-66
2023/02/08 05:29:53;;;;;;;;;;;;;;;;;;5070500;28;19924;-64
2023/02/08 05:32:19;;;;;;;;;;;;;;;;;;5066674;28;19924;-65
2023/02/08 05:34:45;;;;;;;;;;;;;;;;;;5070377;28;19928;-65
2023/02/08 05:37:12;;;;;;;;;;;;;;;;;;5070544;28;19920;-65
2023/02/08 05:39:38;;;;;;;;;;;;;;;;;;5072183;28;20524;-65
2023/02/08 05:42:04;;;;;;;;;;;;;;;;;;5070871;28;20011;-65
2023/02/08 05:44:30;;;;;;;;;;;;;;;;;;5072563;28;19924;-65
2023/02/08 05:46:56;;;;;;;;;;;;;;;;;;5071855;28;19920;-65
2023/02/08 05:49:22;;;;;;;;;;;;;;;;;;5072976;28;19931;-65
2023/02/08 05:51:49;;;;;;;;;;;;;;;;;;5071860;28;20330;-65
2023/02/08 05:54:15;;;;;;;;;;;;;;;;;;5071328;28;20613;-65
2023/02/08 05:56:40;;;;;;;;;;;;;;;;;;5068143;28;19928;-65
2023/02/08 05:59:06;;;;;;;;;;;;;;;;;;5072227;28;19921;-64
2023/02/08 06:01:32;;;;;;;;;;;;;;;;;;5071012;28;20625;-65
2023/02/08 06:03:59;;;;;;;;;;;;;;;;;;5093855;22;19928;-65
2023/02/08 06:06:25;;;;;;;;;;;;;;;;;;5071708;28;19925;-65
2023/02/08 06:08:50;;;;;;;;;;;;;;;;;;5073188;28;19932;-65
2023/02/08 06:11:18;;;;;;;;;;;;;;;;;;5073064;28;20262;-65
2023/02/08 06:13:44;;;;;;;;;;;;;;;;;;5049969;28;20366;-65
2023/02/08 06:16:10;;;;;;;;;;;;;;;;;;5072081;28;19924;-65
2023/02/08 06:18:36;;;;;;;;;;;;;;;;;;5053489;28;19935;-65
2023/02/08 06:21:02;;;;;;;;;;;;;;;;;;5059924;28;19920;-65
2023/02/08 06:23:28;;;;;;;;;;;;;;;;;;5063167;28;20011;-65
2023/02/08 06:25:54;;;;;;;;;;;;;;;;;;5062579;28;19959;-65
2023/02/08 06:28:20;;;;;;;;;;;;;;;;;;5072467;28;19921;-65
2023/02/08 06:30:46;;;;;;;;;;;;;;;;;;5072458;28;19920;-65
2023/02/08 06:33:11;;;;;;;;;;;;;;;;;;5071637;28;20393;-65
2023/02/08 06:35:37;;;;;;;;;;;;;;;;;;5071324;28;19925;-65
2023/02/08 06:38:03;;;;;;;;;;;;;;;;;;5070552;28;20552;-65
2023/02/08 06:40:29;;;;;;;;;;;;;;;;;;5057620;28;19932;-65
2023/02/08 06:42:55;;;;;;;;;;;;;;;;;;5066978;28;19970;-64
2023/02/08 06:45:21;;;;;;;;;;;;;;;;;;5054191;28;19920;-64
2023/02/08 06:47:47;;;;;;;;;;;;;;;;;;5071531;28;19920;-65
2023/02/08 06:50:14;;;;;;;;;;;;;;;;;;5051320;28;20401;-64
2023/02/08 06:52:39;;;;;;;;;;;;;;;;;;5066722;28;19974;-64
2023/02/08 06:55:05;;;;;;;;;;;;;;;;;;5046753;28;19921;-65
2023/02/08 06:57:31;;;;;;;;;;;;;;;;;;5067736;28;19982;-65
2023/02/08 06:59:57;;;;;;;;;;;;;;;;;;5071595;28;20618;-65
2023/02/08 07:02:23;;;;;;;;;;;;;;;;;;5068654;28;19955;-65
2023/02/08 07:04:49;;;;;;;;;;;;;;;;;;5059241;28;20287;-65
2023/02/08 07:07:15;;;;;;;;;;;;;;;;;;5070254;28;19925;-65
2023/02/08 07:09:41;;;;;;;;;;;;;;;;;;5069774;28;20484;-65
2023/02/08 07:12:07;;;;;;;;;;;;;;;;;;5066553;28;19925;-64
2023/02/08 07:14:33;;;;;;;;;;;;;;;;;;5063406;28;19935;-65
2023/02/08 07:16:58;;;;;;;;;;;;;;;;;;5069682;28;19924;-65
2023/02/08 07:19:24;;;;;;;;;;;;;;;;;;5070742;28;20649;-65
2023/02/08 07:21:50;;;;;;;;;;;;;;;;;;5068991;28;19935;-65
2023/02/08 07:24:16;;;;;;;;;;;;;;;;;;5064314;28;20417;-65
2023/02/08 07:26:42;;;;;;;;;;;;;;;;;;5066701;28;20313;-65
2023/02/08 07:29:08;;;;;;;;;;;;;;;;;;5064350;28;19964;-65
2023/02/08 07:31:34;;;;;;;;;;;;;;;;;;5072081;28;19927;-65
2023/02/08 07:34:00;;;;;;;;;;;;;;;;;;5069202;28;19924;-65
2023/02/08 07:36:26;;;;;;;;;;;;;;;;;;5050126;28;19924;-65
2023/02/08 07:38:52;;;;;;;;;;;;;;;;;;5042406;28;20467;-65
2023/02/08 07:41:17;;;;;;;;;;;;;;;;;;5053546;28;19924;-65
2023/02/08 07:43:43;;;;;;;;;;;;;;;;;;5052291;28;19978;-65
2023/02/08 07:46:09;;;;;;;;;;;;;;;;;;5064661;28;19928;-65
2023/02/08 07:48:35;;;;;;;;;;;;;;;;;;5064133;28;20370;-64
2023/02/08 07:51:01;;;;;;;;;;;;;;;;;;5072307;28;19990;-64
2023/02/08 07:53:27;;;;;;;;;;;;;;;;;;5053894;28;20374;-64
2023/02/08 07:55:53;;;;;;;;;;;;;;;;;;5061988;28;19925;-64
2023/02/08 07:58:19;;;;;;;;;;;;;;;;;;5060410;28;19924;-64
2023/02/08 08:00:45;;;;;;;;;;;;;;;;;;5049060;28;19924;-64
2023/02/08 08:03:11;;;;;;;;;;;;;;;;;;5062152;28;20421;-64
2023/02/08 08:05:37;;;;;;;;;;;;;;;;;;5065739;28;19929;-64
2023/02/08 08:08:03;;;;;;;;;;;;;;;;;;5048371;28;19928;-65
2023/02/08 08:10:29;;;;;;;;;;;;;;;;;;5049953;28;20617;-65
2023/02/08 08:12:55;;;;;;;;;;;;;;;;;;5064246;28;19934;-65
2023/02/08 08:15:21;;;;;;;;;;;;;;;;;;5059816;28;19924;-65
2023/02/08 08:17:46;;;;;;;;;;;;;;;;;;5045154;28;20283;-64
2023/02/08 08:20:12;;;;;;;;;;;;;;;;;;5059042;28;19928;-64
2023/02/08 08:22:38;;;;;;;;;;;;;;;;;;5066047;28;20011;-64
2023/02/08 08:25:04;;;;;;;;;;;;;;;;;;5061261;28;19934;-64
2023/02/08 08:27:30;;;;;;;;;;;;;;;;;;5064737;28;20034;-64
2023/02/08 08:29:56;;;;;;;;;;;;;;;;;;5064000;28;20577;-64
2023/02/08 08:32:22;;;;;;;;;;;;;;;;;;5067601;28;19942;-65
2023/02/08 08:34:48;;;;;;;;;;;;;;;;;;5061343;28;19927;-64
2023/02/08 08:37:14;;;;;;;;;;;;;;;;;;5040971;28;19928;-64
2023/02/08 08:39:39;;;;;;;;;;;;;;;;;;5046288;28;19920;-64
2023/02/08 08:42:06;;;;;;;;;;;;;;;;;;5062196;28;20454;-64
2023/02/08 08:44:32;;;;;;;;;;;;;;;;;;5071758;28;19921;-64
2023/02/08 08:46:57;;;;;;;;;;;;;;;;;;5064889;28;19927;-65
2023/02/08 08:49:23;;;;;;;;;;;;;;;;;;5072923;28;20357;-65
2023/02/08 08:51:50;;;;;;;;;;;;;;;;;;5038515;28;19974;-65
2023/02/08 08:54:16;;;;;;;;;;;;;;;;;;5072919;28;19920;-65
2023/02/08 08:56:41;;;;;;;;;;;;;;;;;;5069712;28;19939;-65
2023/02/08 08:59:07;;;;;;;;;;;;;;;;;;5072005;28;19928;-65
2023/02/08 09:01:33;;;;;;;;;;;;;;;;;;5073095;28;19928;-64
2023/02/08 09:03:59;;;;;;;;;;;;;;;;;;5072448;28;19978;-65
2023/02/08 09:06:25;;;;;;;;;;;;;;;;;;5073886;28;19932;-65
2023/02/08 09:08:51;;;;;;;;;;;;;;;;;;5046541;28;19921;-65
2023/02/08 09:11:17;;;;;;;;;;;;;;;;;;5069305;28;19924;-65
2023/02/08 09:13:43;;;;;;;;;;;;;;;;;;5070962;28;19954;-64
2023/02/08 09:16:09;;;;;;;;;;;;;;;;;;5071934;28;19924;-63
2023/02/08 09:18:35;;;;;;;;;;;;;;;;;;5072330;28;20006;-64
2023/02/08 09:21:01;;;;;;;;;;;;;;;;;;5073039;28;20345;-64
2023/02/08 09:23:27;;;;;;;;;;;;;;;;;;5070067;28;19959;-64
2023/02/08 09:25:53;;;;;;;;;;;;;;;;;;5053675;28;19924;-64
2023/02/08 09:28:18;;;;;;;;;;;;;;;;;;5050608;28;19921;-64
2023/02/08 09:30:44;;;;;;;;;;;;;;;;;;5069394;28;19944;-63
2023/02/08 09:33:10;;;;;;;;;;;;;;;;;;5071667;28;20341;-64
2023/02/08 09:35:36;;;;;;;;;;;;;;;;;;5072074;28;20366;-64
2023/02/08 09:38:03;;;;;;;;;;;;;;;;;;5071026;28;19931;-64
2023/02/08 09:40:29;;;;;;;;;;;;;;;;;;5071797;28;19931;-64
2023/02/08 09:42:55;;;;;;;;;;;;;;;;;;5073735;28;20315;-64
2023/02/08 09:45:21;;;;;;;;;;;;;;;;;;5071547;28;19927;-64
2023/02/08 09:47:46;;;;;;;;;;;;;;;;;;5067356;28;19958;-64
2023/02/08 09:50:13;;;;;;;;;;;;;;;;;;5054914;28;20401;-64
2023/02/08 09:52:38;;;;;;;;;;;;;;;;;;5065786;28;19931;-63
2023/02/08 09:55:04;;;;;;;;;;;;;;;;;;5066550;28;19920;-64
2023/02/08 09:57:30;;;;;;;;;;;;;;;;;;5069225;28;19925;-64
2023/02/08 09:59:56;;;;;;;;;;;;;;;;;;5049358;28;19925;-64
2023/02/08 10:02:22;;;;;;;;;;;;;;;;;;5054442;28;20963;-65
2023/02/08 10:04:48;;;;;;;;;;;;;;;;;;5067200;28;19947;-65
2023/02/08 10:07:15;;;;;;;;;;;;;;;;;;5072680;28;20300;-64
2023/02/08 10:09:41;;;;;;;;;;;;;;;;;;5069959;28;19927;-64
2023/02/08 10:12:07;;;;;;;;;;;;;;;;;;5068775;28;20389;-65
2023/02/08 10:14:33;;;;;;;;;;;;;;;;;;5069734;28;19925;-65
2023/02/08 10:16:59;;;;;;;;;;;;;;;;;;5068510;28;19936;-65
2023/02/08 10:19:25;;;;;;;;;;;;;;;;;;5069293;28;20472;-65
2023/02/08 10:21:50;;;;;;;;;;;;;;;;;;5070694;28;19924;-65
2023/02/08 10:24:16;;;;;;;;;;;;;;;;;;5071791;28;19920;-65
2023/02/08 10:26:42;;;;;;;;;;;;;;;;;;5066586;28;20014;-65
2023/02/08 10:29:08;;;;;;;;;;;;;;;;;;5070556;28;19920;-64
2023/02/08 10:31:34;;;;;;;;;;;;;;;;;;5067492;28;19966;-64
2023/02/08 10:34:00;;;;;;;;;;;;;;;;;;5048833;28;19921;-65
2023/02/08 10:36:26;;;;;;;;;;;;;;;;;;5054143;28;20362;-65
2023/02/08 10:38:52;;;;;;;;;;;;;;;;;;5068641;28;19924;-65
2023/02/08 10:41:18;;;;;;;;;;;;;;;;;;5054177;28;19931;-65
2023/02/08 10:43:44;;;;;;;;;;;;;;;;;;5052158;28;19920;-65
2023/02/08 10:46:09;;;;;;;;;;;;;;;;;;5068131;28;19999;-65
2023/02/08 10:48:35;;;;;;;;;;;;;;;;;;5054892;28;19978;-65
2023/02/08 10:51:01;;;;;;;;;;;;;;;;;;5053268;28;20014;-65
2023/02/08 10:53:27;;;;;;;;;;;;;;;;;;5065853;28;20346;-65
2023/02/08 10:55:55;;;;;;;;;;;;;;;;;;5051049;28;21282;-65
2023/02/08 10:58:21;;;;;;;;;;;;;;;;;;5060567;28;20007;-65
2023/02/08 11:00:47;;;;;;;;;;;;;;;;;;5069770;28;19974;-65
2023/02/08 11:03:12;;;;;;;;;;;;;;;;;;5071452;28;19928;-65
2023/02/08 11:05:39;;;;;;;;;;;;;;;;;;5069643;28;20000;-65
2023/02/08 11:08:05;;;;;;;;;;;;;;;;;;5069797;28;19920;-65
2023/02/08 11:10:31;;;;;;;;;;;;;;;;;;5066823;28;19924;-65
2023/02/08 11:12:57;;;;;;;;;;;;;;;;;;5069464;28;19921;-65
2023/02/08 11:15:23;;;;;;;;;;;;;;;;;;5064003;28;20193;-65
2023/02/08 11:17:48;;;;;;;;;;;;;;;;;;5072471;28;19928;-65
2023/02/08 11:20:14;;;;;;;;;;;;;;;;;;5070277;28;19921;-65
2023/02/08 11:22:40;;;;;;;;;;;;;;;;;;5066930;28;19929;-65
2023/02/08 11:25:06;;;;;;;;;;;;;;;;;;5067388;28;19921;-65
2023/02/08 11:27:32;;;;;;;;;;;;;;;;;;5067370;28;20448;-65
2023/02/08 11:29:58;;;;;;;;;;;;;;;;;;5062176;28;20598;-65
2023/02/08 11:32:24;;;;;;;;;;;;;;;;;;5065822;28;20038;-65
2023/02/08 11:34:50;;;;;;;;;;;;;;;;;;5071094;28;19925;-65
2023/02/08 11:37:16;;;;;;;;;;;;;;;;;;5071099;28;19931;-65
2023/02/08 11:39:41;;;;;;;;;;;;;;;;;;5071743;28;19928;-65
2023/02/08 11:42:07;;;;;;;;;;;;;;;;;;5064741;28;19922;-65
2023/02/08 11:44:33;;;;;;;;;;;;;;;;;;5046689;28;19931;-65
2023/02/08 11:46:59;;;;;;;;;;;;;;;;;;5073790;28;19924;-66
2023/02/08 11:49:25;;;;;;;;;;;;;;;;;;5072276;28;19944;-66
2023/02/08 11:51:51;;;;;;;;;;;;;;;;;;5075136;28;19974;-66
2023/02/08 11:54:17;;;;;;;;;;;;;;;;;;5070936;28;20274;-66
2023/02/08 11:56:43;;;;;;;;;;;;;;;;;;5072664;28;19939;-66
2023/02/08 11:59:11;;;;;;;;;;;;;;;;;;5074924;28;19999;-66
2023/02/08 12:01:37;;;;;;;;;;;;;;;;;;5071305;28;19985;-65
2023/02/08 12:04:03;;;;;;;;;;;;;;;;;;5073329;28;20406;-65
2023/02/08 12:06:28;;;;;;;;;;;;;;;;;;5074643;28;19924;-66
2023/02/08 12:08:54;;;;;;;;;;;;;;;;;;5056974;28;19924;-66
2023/02/08 12:11:20;;;;;;;;;;;;;;;;;;5073424;28;20285;-66
2023/02/08 12:13:46;;;;;;;;;;;;;;;;;;5041299;28;19960;-67
2023/02/08 12:16:12;;;;;;;;;;;;;;;;;;5053503;28;20382;-67
2023/02/08 12:18:38;;;;;;;;;;;;;;;;;;5055653;28;20008;-68
2023/02/08 12:21:04;;;;;;;;;;;;;;;;;;5071908;28;19925;-69
2023/02/08 12:23:30;;;;;;;;;;;;;;;;;;5047781;28;19966;-68
2023/02/08 12:25:56;;;;;;;;;;;;;;;;;;5071230;28;19929;-67
2023/02/08 12:28:22;;;;;;;;;;;;;;;;;;5073252;28;19939;-68
2023/02/08 12:30:48;;;;;;;;;;;;;;;;;;5064656;28;19924;-68
2023/02/08 12:33:14;;;;;;;;;;;;;;;;;;5070475;28;19921;-69
2023/02/08 12:35:42;;;;;;;;;;;;;;;;;;5073554;28;20332;-69
2023/02/08 12:40:52;;;;;;;;;;;;;;;;;;5045642;28;20007;-67
2023/02/08 12:43:18;;;;;;;;;;;;;;;;;;5072089;28;20354;-67
2023/02/08 12:45:44;;;;;;;;;;;;;;;;;;5065207;28;19927;-67
2023/02/08 12:48:10;;;;;;;;;;;;;;;;;;5051496;28;19925;-67
2023/02/08 12:50:36;;;;;;;;;;;;;;;;;;5086993;28;19931;-66
2023/02/08 12:53:02;;;;;;;;;;;;;;;;;;5072570;28;19924;-67
2023/02/08 12:55:28;;;;;;;;;;;;;;;;;;5074036;28;20413;-67
2023/02/08 12:57:53;;;;;;;;;;;;;;;;;;5071548;28;19932;-67
2023/02/08 13:00:19;;;;;;;;;;;;;;;;;;5053507;28;19959;-68
2023/02/08 13:02:45;;;;;;;;;;;;;;;;;;5064061;28;20375;-68
2023/02/08 13:05:12;;;;;;;;;;;;;;;;;;5059831;28;19973;-67
2023/02/08 13:07:38;;;;;;;;;;;;;;;;;;5067304;28;19931;-67
2023/02/08 13:10:04;;;;;;;;;;;;;;;;;;5060504;28;19921;-67
2023/02/08 13:12:30;;;;;;;;;;;;;;;;;;5049153;28;19928;-67
2023/02/08 13:14:56;;;;;;;;;;;;;;;;;;5070261;28;20320;-67
2023/02/08 13:17:22;;;;;;;;;;;;;;;;;;5059936;28;20466;-67
2023/02/08 13:19:48;;;;;;;;;;;;;;;;;;5050668;28;19920;-67
2023/02/08 13:22:14;;;;;;;;;;;;;;;;;;5069797;28;19932;-67
2023/02/08 13:24:39;;;;;;;;;;;;;;;;;;5067564;28;20003;-67
2023/02/08 13:27:07;;;;;;;;;;;;;;;;;;5047259;28;19925;-68
2023/02/08 13:29:33;;;;;;;;;;;;;;;;;;5066311;28;19939;-68
2023/02/08 13:31:59;;;;;;;;;;;;;;;;;;5065066;28;19939;-68
2023/02/08 13:34:25;;;;;;;;;;;;;;;;;;5059714;28;20281;-67
2023/02/08 13:36:51;;;;;;;;;;;;;;;;;;5062668;28;20285;-67
2023/02/08 13:39:17;;;;;;;;;;;;;;;;;;5060574;28;19931;-67
2023/02/08 13:41:42;;;;;;;;;;;;;;;;;;5061681;28;19924;-67
2023/02/08 13:44:08;;;;;;;;;;;;;;;;;;5060303;28;19972;-66
2023/02/08 13:46:34;;;;;;;;;;;;;;;;;;5064775;28;19928;-69
2023/02/08 13:49:00;;;;;;;;;;;;;;;;;;5066736;28;20393;-69
2023/02/08 13:51:26;;;;;;;;;;;;;;;;;;5047824;28;19982;-68
2023/02/08 13:53:52;;;;;;;;;;;;;;;;;;5065200;28;19920;-69
2023/02/08 13:56:18;;;;;;;;;;;;;;;;;;5060224;28;19950;-69
2023/02/08 13:58:44;;;;;;;;;;;;;;;;;;5064081;28;20270;-69
2023/02/08 14:01:10;;;;;;;;;;;;;;;;;;5065956;28;19929;-69
2023/02/08 14:03:35;;;;;;;;;;;;;;;;;;5064103;28;19931;-69
2023/02/08 14:06:01;;;;;;;;;;;;;;;;;;5046896;28;20365;-69
2023/02/08 14:08:27;;;;;;;;;;;;;;;;;;5043933;28;19974;-69
2023/02/08 14:10:53;;;;;;;;;;;;;;;;;;5043266;28;19928;-69
2023/02/08 14:13:19;;;;;;;;;;;;;;;;;;5064132;28;19936;-70
2023/02/08 14:15:46;;;;;;;;;;;;;;;;;;5046435;28;19947;-70
2023/02/08 14:18:12;;;;;;;;;;;;;;;;;;5063819;28;19928;-69
2023/02/08 14:20:38;;;;;;;;;;;;;;;;;;5048886;28;19921;-69
2023/02/08 14:23:04;;;;;;;;;;;;;;;;;;5043798;28;19954;-69
2023/02/08 14:25:30;;;;;;;;;;;;;;;;;;5065585;28;19924;-70
2023/02/08 14:27:56;;;;;;;;;;;;;;;;;;5063591;28;20321;-70
2023/02/08 14:30:22;;;;;;;;;;;;;;;;;;5043102;28;20357;-69
2023/02/08 14:32:48;;;;;;;;;;;;;;;;;;5066204;28;19947;-70
2023/02/08 14:35:14;;;;;;;;;;;;;;;;;;5064523;28;20285;-70
2023/02/08 14:37:40;;;;;;;;;;;;;;;;;;5044095;28;19920;-69
2023/02/08 14:40:05;;;;;;;;;;;;;;;;;;5058856;28;20019;-69
2023/02/08 14:42:31;;;;;;;;;;;;;;;;;;5056864;28;19932;-69
2023/02/08 14:44:57;;;;;;;;;;;;;;;;;;5049174;28;19933;-68
2023/02/08 14:47:23;;;;;;;;;;;;;;;;;;5045246;28;19932;-68
2023/02/08 14:49:49;;;;;;;;;;;;;;;;;;5063964;28;19928;-69
2023/02/08 14:52:15;;;;;;;;;;;;;;;;;;5048500;28;19929;-69
2023/02/08 14:54:41;;;;;;;;;;;;;;;;;;5041367;28;19931;-69
2023/02/08 14:57:07;;;;;;;;;;;;;;;;;;5061732;28;19924;-69
2023/02/08 14:59:33;;;;;;;;;;;;;;;;;;5065559;28;19987;-68
2023/02/08 15:01:59;;;;;;;;;;;;;;;;;;5047052;28;19920;-68
2023/02/08 15:04:25;;;;;;;;;;;;;;;;;;5059318;28;20003;-69
2023/02/08 15:06:51;;;;;;;;;;;;;;;;;;5064335;28;20301;-69
2023/02/08 15:09:17;;;;;;;;;;;;;;;;;;5046517;28;20029;-68
2023/02/08 15:11:43;;;;;;;;;;;;;;;;;;5049431;28;19928;-69
2023/02/08 15:14:09;;;;;;;;;;;;;;;;;;5045797;28;20077;-68
2023/02/08 15:16:35;;;;;;;;;;;;;;;;;;5045294;28;20009;-68
2023/02/08 15:19:00;;;;;;;;;;;;;;;;;;5046788;28;19921;-69
2023/02/08 15:21:26;;;;;;;;;;;;;;;;;;5044037;28;19966;-68
2023/02/08 15:23:52;;;;;;;;;;;;;;;;;;5062466;28;20328;-68
2023/02/08 15:26:18;;;;;;;;;;;;;;;;;;5063045;28;19927;-68
2023/02/08 15:28:44;;;;;;;;;;;;;;;;;;5068725;28;19920;-67
2023/02/08 15:31:10;;;;;;;;;;;;;;;;;;5062040;28;19929;-68
2023/02/08 15:33:36;;;;;;;;;;;;;;;;;;5045442;28;19932;-68
2023/02/08 15:36:02;;;;;;;;;;;;;;;;;;5055037;28;19964;-69
2023/02/08 15:38:27;;;;;;;;;;;;;;;;;;5045461;28;19927;-69
2023/02/08 15:40:53;;;;;;;;;;;;;;;;;;5029505;28;20574;-69
2023/02/08 15:43:19;;;;;;;;;;;;;;;;;;5065724;28;19978;-69
2023/02/08 15:45:45;;;;;;;;;;;;;;;;;;5065611;28;19925;-69
2023/02/08 15:48:11;;;;;;;;;;;;;;;;;;5067065;28;19921;-69
2023/02/08 15:50:37;;;;;;;;;;;;;;;;;;5067375;28;20012;-69
2023/02/08 15:53:03;;;;;;;;;;;;;;;;;;5053232;28;19929;-68
2023/02/08 15:55:29;;;;;;;;;;;;;;;;;;5069487;28;20371;-67
2023/02/08 15:57:55;;;;;;;;;;;;;;;;;;5070982;28;20003;-68
2023/02/08 16:00:21;;;;;;;;;;;;;;;;;;5071160;28;19925;-68
2023/02/08 16:02:46;;;;;;;;;;;;;;;;;;5067952;28;19935;-67
2023/02/08 16:05:12;;;;;;;;;;;;;;;;;;5051989;28;19962;-67
2023/02/08 16:07:38;;;;;;;;;;;;;;;;;;5066986;28;19924;-67
2023/02/08 16:10:04;;;;;;;;;;;;;;;;;;5048625;28;20031;-67
2023/02/08 16:12:30;;;;;;;;;;;;;;;;;;5050912;28;19925;-67
2023/02/08 16:14:56;;;;;;;;;;;;;;;;;;5062906;28;19927;-68
2023/02/08 16:17:22;;;;;;;;;;;;;;;;;;5070553;28;19927;-68
2023/02/08 16:19:48;;;;;;;;;;;;;;;;;;5069648;28;20066;-68
2023/02/08 16:22:14;;;;;;;;;;;;;;;;;;5070065;28;20377;-68
2023/02/08 16:24:40;;;;;;;;;;;;;;;;;;5053199;28;19999;-68
2023/02/08 16:27:06;;;;;;;;;;;;;;;;;;5071896;28;20038;-67
2023/02/08 16:29:32;;;;;;;;;;;;;;;;;;5072920;28;20579;-68
2023/02/08 16:31:59;;;;;;;;;;;;;;;;;;5070414;28;19925;-68
2023/02/08 16:34:25;;;;;;;;;;;;;;;;;;5066870;28;20025;-68
2023/02/08 16:36:51;;;;;;;;;;;;;;;;;;5073180;28;19994;-68
2023/02/08 16:39:17;;;;;;;;;;;;;;;;;;5073570;28;19935;-67
2023/02/08 16:41:43;;;;;;;;;;;;;;;;;;5073305;28;19925;-67
2023/02/08 16:44:09;;;;;;;;;;;;;;;;;;5070808;28;20584;-67
2023/02/08 16:46:35;;;;;;;;;;;;;;;;;;5071972;28;19931;-67
2023/02/08 16:49:01;;;;;;;;;;;;;;;;;;5041328;28;19921;-68
2023/02/08 16:51:26;;;;;;;;;;;;;;;;;;5072986;28;19986;-68
2023/02/08 16:53:52;;;;;;;;;;;;;;;;;;5056166;28;19947;-68
2023/02/08 16:56:18;;;;;;;;;;;;;;;;;;5072757;28;19929;-66
2023/02/08 16:58:44;;;;;;;;;;;;;;;;;;5056940;28;19942;-67
2023/02/08 17:01:10;;;;;;;;;;;;;;;;;;5056169;28;19930;-67
2023/02/08 17:03:37;;;;;;;;;;;;;;;;;;5072164;28;19932;-68